Time;durP1;ratioP1;P1;durP2;ratioP2;P2;SDS_P1;SDS_P2;PMS_P1;PMS_P2;Temp;Humidity;BMP_temperature;BMP_pressure;BME280_temperature;BME280_humidity;BME280_pressure;Samples;Min_cycle;Max_cycle;Signal;HPM_P1;HPM_P2
2021/05/07 00:01:37;;;;;;;1.13;0.90;;;;;;;10.22;85.90;94715.63;5034177;28;20203;-82
2021/05/07 00:04:04;;;;;;;1.10;0.93;;;;;;;10.29;85.19;94710.50;5034413;28;20639;-81
2021/05/07 00:06:30;;;;;;;1.80;0.90;;;;;;;10.29;84.22;94700.22;5016586;28;20202;-83
2021/05/07 00:08:57;;;;;;;1.57;0.97;;;;;;;10.31;83.08;94711.09;5035229;28;20218;-83
2021/05/07 00:11:23;;;;;;;1.90;0.80;;;;;;;10.34;82.48;94708.13;5033616;28;20249;-81
2021/05/07 00:13:50;;;;;;;2.07;0.80;;;;;;;10.34;82.05;94708.94;5034593;28;20222;-81
2021/05/07 00:16:16;;;;;;;1.33;1.00;;;;;;;10.27;80.16;94694.47;5033729;28;20194;-83
2021/05/07 00:18:42;;;;;;;1.03;0.90;;;;;;;10.28;80.02;94690.91;5034372;28;20198;-82
2021/05/07 00:21:09;;;;;;;0.80;0.80;;;;;;;10.22;80.06;94700.19;5033515;28;20453;-82
2021/05/07 00:23:35;;;;;;;1.20;0.80;;;;;;;10.29;79.97;94706.16;5034063;28;20241;-83
2021/05/07 00:26:02;;;;;;;0.80;0.70;;;;;;;10.30;79.77;94700.00;5034766;28;20255;-82
2021/05/07 00:28:28;;;;;;;0.83;0.83;;;;;;;10.26;79.12;94703.97;5033636;28;20198;-83
2021/05/07 00:30:54;;;;;;;0.90;0.70;;;;;;;10.35;79.83;94702.78;5033920;28;20425;-81
2021/05/07 00:33:20;;;;;;;0.70;0.70;;;;;;;10.30;78.99;94697.44;5033969;28;20190;-82
2021/05/07 00:35:47;;;;;;;1.03;0.93;;;;;;;10.37;78.83;94712.91;5034505;28;20268;-82
2021/05/07 00:38:14;;;;;;;1.13;0.80;;;;;;;10.34;78.45;94710.72;5034414;28;20194;-83
2021/05/07 00:40:40;;;;;;;1.27;0.80;;;;;;;10.25;79.72;94699.78;5033443;28;20264;-82
2021/05/07 00:43:07;;;;;;;0.70;0.70;;;;;;;10.18;80.46;94708.47;5033958;28;20226;-81
2021/05/07 00:45:33;;;;;;;1.40;0.70;;;;;;;10.15;80.49;94699.38;5033367;28;20222;-84
2021/05/07 00:48:00;;;;;;;0.73;0.73;;;;;;;10.14;81.69;94709.84;5034121;28;20316;-84
2021/05/07 00:50:28;;;;;;;1.13;0.60;;;;;;;10.08;81.67;94702.91;5034244;28;20616;-84
2021/05/07 00:52:55;;;;;;;1.07;0.60;;;;;;;10.12;82.32;94692.03;5033211;28;20205;-83
2021/05/07 00:55:22;;;;;;;1.10;0.70;;;;;;;10.22;82.14;94702.75;5033196;28;20703;-82
2021/05/07 00:57:48;;;;;;;1.00;0.70;;;;;;;10.14;82.80;94705.50;5033740;28;20202;-82
2021/05/07 01:00:16;;;;;;;0.77;0.70;;;;;;;10.14;83.01;94704.72;5033377;28;20206;-83
2021/05/07 01:02:42;;;;;;;1.57;0.70;;;;;;;10.16;83.39;94711.25;5033392;28;20248;-80
2021/05/07 01:05:10;;;;;;;1.20;0.57;;;;;;;10.17;83.59;94689.69;5033306;28;20214;-82
2021/05/07 01:07:36;;;;;;;1.73;0.60;;;;;;;10.23;83.19;94693.25;5033473;28;20208;-84
2021/05/07 01:10:05;;;;;;;0.70;0.70;;;;;;;10.33;82.63;94694.47;5033115;28;20228;-82
2021/05/07 01:12:31;;;;;;;1.80;0.70;;;;;;;10.28;83.13;94691.69;5032993;28;20222;-82
2021/05/07 01:15:03;;;;;;;0.70;0.70;;;;;;;10.19;82.43;94690.31;5032440;28;20218;-82
2021/05/07 01:17:30;;;;;;;1.23;0.70;;;;;;;10.25;82.63;94699.00;5033966;28;20581;-82
2021/05/07 01:19:56;;;;;;;0.70;0.70;;;;;;;10.30;82.90;94702.59;5033030;28;20198;-84
2021/05/07 01:22:23;;;;;;;2.43;0.70;;;;;;;10.27;82.78;94710.69;5032916;28;20241;-82
2021/05/07 01:24:49;;;;;;;0.77;0.77;;;;;;;10.38;82.40;94711.91;5033450;28;20218;-82
2021/05/07 01:27:15;;;;;;;0.87;0.60;;;;;;;10.41;82.79;94710.69;5033463;28;20234;-83
2021/05/07 01:29:41;;;;;;;0.60;0.60;;;;;;;10.33;82.96;94703.97;5032750;28;20234;-83
2021/05/07 01:32:07;;;;;;;0.63;0.60;;;;;;;10.35;82.46;94705.38;5032174;28;20194;-82
2021/05/07 01:34:33;;;;;;;0.70;0.70;;;;;;;10.45;82.25;94706.75;5032333;28;20218;-82
2021/05/07 01:36:59;;;;;;;0.87;0.70;;;;;;;10.45;82.68;94702.41;5032578;28;20907;-81
2021/05/07 01:39:26;;;;;;;0.60;0.60;;;;;;;10.40;83.32;94709.91;5032072;28;20206;-81
2021/05/07 01:41:52;;;;;;;0.53;0.53;;;;;;;10.37;83.77;94726.56;5031568;28;20252;-84
2021/05/07 01:44:18;;;;;;;0.60;0.60;;;;;;;10.35;83.66;94725.16;5032850;28;20245;-81
2021/05/07 01:46:44;;;;;;;0.60;0.60;;;;;;;10.40;83.19;94717.63;5032885;28;20230;-84
2021/05/07 01:49:10;;;;;;;0.93;0.90;;;;;;;10.38;83.22;94715.28;5032656;28;20557;-82
2021/05/07 01:51:36;;;;;;;0.73;0.60;;;;;;;10.39;84.15;94726.34;5032539;28;20232;-82
2021/05/07 01:54:02;;;;;;;0.80;0.70;;;;;;;10.52;83.41;94723.00;5032054;28;20596;-82
2021/05/07 01:56:29;;;;;;;0.90;0.70;;;;;;;10.52;83.68;94718.63;5031938;28;20293;-83
2021/05/07 01:58:55;;;;;;;1.00;0.70;;;;;;;10.53;83.15;94725.38;5031447;28;20624;-83
2021/05/07 02:01:22;;;;;;;0.80;0.80;;;;;;;10.57;82.81;94718.84;5030677;28;20202;-82
2021/05/07 02:03:48;;;;;;;2.33;0.70;;;;;;;10.57;82.57;94731.72;5031467;28;20221;-81
2021/05/07 02:06:15;;;;;;;0.60;0.60;;;;;;;10.50;82.60;94723.19;5030660;28;20272;-81
2021/05/07 02:08:41;;;;;;;1.07;0.70;;;;;;;10.42;82.73;94728.50;5031791;28;20300;-82
2021/05/07 02:11:07;;;;;;;0.90;0.70;;;;;;;10.53;82.61;94732.31;5031219;28;20230;-82
2021/05/07 02:13:34;;;;;;;3.63;0.90;;;;;;;10.52;81.76;94738.44;5031507;28;20623;-81
2021/05/07 02:16:00;;;;;;;0.80;0.80;;;;;;;10.49;82.48;94734.47;5031673;28;20202;-83
2021/05/07 02:18:26;;;;;;;0.70;0.70;;;;;;;10.39;82.21;94734.84;5031733;28;20209;-82
2021/05/07 02:20:54;;;;;;;1.00;1.00;;;;;;;10.41;82.73;94721.78;5031066;28;20615;-82
2021/05/07 02:23:21;;;;;;;1.17;0.90;;;;;;;10.37;82.03;94721.41;5030594;28;20222;-81
2021/05/07 02:25:47;;;;;;;1.67;0.90;;;;;;;10.36;81.41;94719.81;5030784;28;20596;-80
2021/05/07 02:28:13;;;;;;;0.90;0.90;;;;;;;10.42;80.91;94713.06;5030730;28;20211;-81
2021/05/07 02:30:40;;;;;;;1.90;0.80;;;;;;;10.46;80.55;94732.28;5031441;28;20199;-84
2021/05/07 02:33:06;;;;;;;1.30;0.77;;;;;;;10.39;79.54;94727.13;5031749;28;20250;-84
2021/05/07 02:35:33;;;;;;;2.77;0.80;;;;;;;10.44;78.73;94723.19;5030899;28;20210;-81
2021/05/07 02:37:59;;;;;;;1.10;0.80;;;;;;;10.46;78.81;94731.50;5031281;28;20206;-82
2021/05/07 02:40:25;;;;;;;1.33;0.80;;;;;;;10.42;78.70;94736.22;5031215;28;20210;-83
2021/05/07 02:42:51;;;;;;;0.97;0.80;;;;;;;10.40;78.40;94717.63;5030868;28;20222;-83
2021/05/07 02:45:17;;;;;;;1.27;0.80;;;;;;;10.42;78.02;94713.06;5033962;28;20222;-82
2021/05/07 02:47:44;;;;;;;1.37;0.70;;;;;;;10.44;78.57;94718.03;5034710;28;20206;-83
2021/05/07 02:50:11;;;;;;;1.00;0.80;;;;;;;10.44;78.34;94723.19;5034488;28;20225;-83
2021/05/07 02:52:38;;;;;;;1.37;0.90;;;;;;;10.44;78.19;94711.09;5035325;28;20201;-84
2021/05/07 02:55:05;;;;;;;1.77;0.70;;;;;;;10.47;77.60;94709.91;5035078;28;20733;-83
2021/05/07 02:57:31;;;;;;;1.50;1.07;;;;;;;10.46;77.60;94722.00;5034357;28;20206;-83
2021/05/07 02:59:57;;;;;;;0.87;0.80;;;;;;;10.40;77.65;94722.75;5034759;28;20194;-82
2021/05/07 03:02:23;;;;;;;0.93;0.70;;;;;;;10.45;78.07;94722.19;5034850;28;20313;-82
2021/05/07 03:04:50;;;;;;;2.60;0.80;;;;;;;10.39;77.98;94718.63;5034459;28;20221;-83
2021/05/07 03:07:16;;;;;;;0.87;0.73;;;;;;;10.34;77.96;94713.28;5034403;28;20260;-82
2021/05/07 03:09:42;;;;;;;2.27;1.10;;;;;;;10.26;77.85;94723.75;5033590;28;20607;-83
2021/05/07 03:12:08;;;;;;;1.40;0.90;;;;;;;10.22;78.09;94718.19;5033722;28;20210;-82
2021/05/07 03:14:34;;;;;;;0.83;0.70;;;;;;;10.22;77.48;94714.81;5034441;28;20724;-82
2021/05/07 03:17:00;;;;;;;0.87;0.70;;;;;;;10.27;77.69;94712.47;5033894;28;20229;-83
2021/05/07 03:19:26;;;;;;;0.70;0.70;;;;;;;10.23;77.28;94724.13;5034188;28;20205;-82
2021/05/07 03:21:53;;;;;;;1.23;0.90;;;;;;;10.22;77.40;94725.13;5036246;28;20715;-84
2021/05/07 03:24:19;;;;;;;0.93;0.80;;;;;;;10.30;77.69;94736.03;5037757;28;20222;-84
2021/05/07 03:26:45;;;;;;;1.93;0.87;;;;;;;10.32;77.08;94749.50;5037131;28;20198;-84
2021/05/07 03:29:11;;;;;;;1.00;0.80;;;;;;;10.26;76.98;94741.75;5037816;28;20252;-84
2021/05/07 03:31:39;;;;;;;0.73;0.63;;;;;;;10.26;76.97;94755.41;5036774;28;20225;-84
2021/05/07 03:34:05;;;;;;;1.80;0.83;;;;;;;10.31;77.10;94749.69;5037191;28;20218;-84
2021/05/07 03:36:31;;;;;;;1.27;0.80;;;;;;;10.30;77.26;94748.09;5036329;28;20713;-84
2021/05/07 03:38:58;;;;;;;1.13;0.93;;;;;;;10.24;77.39;94752.22;5037072;28;20195;-84
2021/05/07 03:41:25;;;;;;;2.40;1.00;;;;;;;10.06;78.61;94775.09;5035017;28;20217;-84
2021/05/07 03:43:51;;;;;;;1.67;0.80;;;;;;;10.11;79.64;94775.31;5035064;28;20744;-84
2021/05/07 03:46:17;;;;;;;1.83;0.93;;;;;;;10.15;79.75;94781.69;5035269;28;20199;-83
2021/05/07 03:48:43;;;;;;;1.43;1.00;;;;;;;10.14;80.44;94787.00;5034984;28;20918;-84
2021/05/07 03:51:09;;;;;;;2.83;1.00;;;;;;;10.10;82.71;94794.31;5034678;28;20550;-84
2021/05/07 03:53:35;;;;;;;3.37;1.00;;;;;;;10.08;83.65;94798.06;5033959;28;20202;-84
2021/05/07 03:56:02;;;;;;;2.97;1.23;;;;;;;9.94;83.71;94794.66;5034965;28;20289;-84
2021/05/07 03:58:28;;;;;;;2.43;1.30;;;;;;;9.94;85.03;94792.09;5035137;28;20249;-84
2021/05/07 04:00:54;;;;;;;4.47;1.03;;;;;;;9.92;86.12;94805.13;5034516;28;20225;-84
2021/05/07 04:03:20;;;;;;;2.60;1.10;;;;;;;9.84;85.50;94786.50;5034012;28;20224;-84
2021/05/07 04:05:49;;;;;;;3.67;1.20;;;;;;;9.70;87.09;94783.88;5034771;28;20222;-84
2021/05/07 04:08:17;;;;;;;3.40;1.17;;;;;;;9.59;86.40;94789.56;5034400;28;20642;-84
2021/05/07 04:10:45;;;;;;;1.23;1.00;;;;;;;9.51;88.51;94783.75;5034153;28;20656;-84
2021/05/07 04:13:39;;;;;;;2.30;1.03;;;;;;;9.53;88.33;94787.72;5034181;28;20208;-84
2021/05/07 04:16:05;;;;;;;2.33;0.90;;;;;;;9.52;87.67;94790.47;5034253;28;20198;-84
2021/05/07 04:18:31;;;;;;;2.17;0.90;;;;;;;9.49;87.59;94801.13;5034112;28;20209;-84
2021/05/07 04:20:57;;;;;;;2.57;1.27;;;;;;;9.48;88.24;94799.56;5034106;28;20198;-84
2021/05/07 04:23:23;;;;;;;3.93;2.80;;;;;;;9.40;88.24;94802.28;5033702;28;20233;-84
2021/05/07 04:25:50;;;;;;;2.50;1.07;;;;;;;9.46;87.20;94807.44;5033787;28;20226;-84
2021/05/07 04:28:17;;;;;;;2.33;1.00;;;;;;;9.51;87.75;94812.81;5033879;28;20202;-84
2021/05/07 04:30:43;;;;;;;1.20;1.00;;;;;;;9.60;87.80;94805.75;5033260;28;20198;-83
2021/05/07 04:33:09;;;;;;;2.07;1.10;;;;;;;9.57;87.32;94803.56;5033481;28;20289;-83
2021/05/07 04:35:35;;;;;;;3.60;1.30;;;;;;;9.60;89.41;94808.34;5034250;28;20224;-80
2021/05/07 04:38:01;;;;;;;4.33;1.40;;;;;;;9.60;88.94;94792.91;5033220;28;20198;-84
2021/05/07 04:40:28;;;;;;;3.63;1.23;;;;;;;9.67;90.28;94798.88;5034231;28;20199;-82
2021/05/07 04:42:53;;;;;;;3.87;1.20;;;;;;;9.67;88.56;94789.38;5033417;28;20218;-81
2021/05/07 04:45:21;;;;;;;1.70;1.10;;;;;;;9.70;89.87;94785.63;5034245;28;20226;-83
2021/05/07 04:47:47;;;;;;;1.80;1.10;;;;;;;9.67;89.89;94806.56;5033500;28;20221;-83
2021/05/07 04:50:14;;;;;;;2.17;1.37;;;;;;;9.56;91.29;94825.91;5033847;28;20209;-83
2021/05/07 04:52:41;;;;;;;3.37;1.83;;;;;;;9.54;90.16;94829.63;5030328;28;20393;-84
2021/05/07 04:55:08;;;;;;;6.67;4.10;;;;;;;9.59;89.34;94829.88;5027488;28;20221;-82
2021/05/07 04:57:34;;;;;;;13.40;11.23;;;;;;;9.67;89.67;94852.84;5032466;28;20202;-84
2021/05/07 05:00:00;;;;;;;1.80;1.40;;;;;;;9.61;89.68;94851.03;5033140;28;20202;-83
2021/05/07 05:02:29;;;;;;;1.97;1.20;;;;;;;9.49;89.65;94850.75;5032278;28;20218;-81
2021/05/07 05:04:55;;;;;;;2.83;1.00;;;;;;;9.46;90.26;94853.69;5033679;28;20241;-81
2021/05/07 05:07:20;;;;;;;1.10;0.90;;;;;;;9.32;90.56;94850.25;5032132;28;20209;-84
2021/05/07 05:09:46;;;;;;;1.00;0.80;;;;;;;9.37;88.60;94848.91;5032793;28;20869;-83
2021/05/07 05:12:12;;;;;;;1.47;0.90;;;;;;;9.38;89.12;94851.28;5031887;28;20195;-82
2021/05/07 05:14:38;;;;;;;1.63;0.80;;;;;;;9.38;89.51;94851.28;5033281;28;20822;-83
2021/05/07 05:17:04;;;;;;;1.70;0.90;;;;;;;9.43;90.23;94861.75;5033122;28;20225;-85
2021/05/07 05:19:31;;;;;;;1.47;0.97;;;;;;;9.45;88.18;94869.28;5032398;28;20265;-84
2021/05/07 05:21:57;;;;;;;3.27;1.10;;;;;;;9.45;89.13;94882.13;5032356;28;20199;-82
2021/05/07 05:24:23;;;;;;;1.97;1.00;;;;;;;9.46;90.61;94881.16;5033417;28;20229;-82
2021/05/07 05:26:49;;;;;;;1.20;0.90;;;;;;;9.52;90.15;94881.22;5033724;28;20206;-84
2021/05/07 05:29:15;;;;;;;1.93;1.00;;;;;;;9.53;90.95;94882.81;5033353;28;20210;-83
2021/05/07 05:31:42;;;;;;;1.63;0.90;;;;;;;9.58;89.98;94897.66;5032451;28;20206;-84
2021/05/07 05:34:07;;;;;;;1.63;0.90;;;;;;;9.64;89.72;94897.69;5033403;28;20226;-83
2021/05/07 05:36:34;;;;;;;1.33;1.03;;;;;;;9.69;89.79;94902.28;5033500;28;20600;-82
2021/05/07 05:39:00;;;;;;;1.20;0.90;;;;;;;9.75;88.90;94909.25;5032530;28;20692;-83
2021/05/07 05:41:26;;;;;;;1.30;0.97;;;;;;;9.80;88.44;94906.13;5032399;28;20213;-84
2021/05/07 05:43:52;;;;;;;1.53;0.97;;;;;;;9.78;88.56;94908.88;5032164;28;20249;-82
2021/05/07 05:46:18;;;;;;;2.77;1.10;;;;;;;9.73;89.19;94918.94;5032918;28;20680;-84
2021/05/07 05:48:44;;;;;;;1.57;1.10;;;;;;;9.76;88.77;94923.69;5029992;28;20202;-84
2021/05/07 05:51:10;;;;;;;1.70;1.07;;;;;;;9.67;89.05;94923.03;5032038;28;20290;-82
2021/05/07 05:53:37;;;;;;;1.17;0.97;;;;;;;9.60;89.43;94923.97;5031200;28;20465;-83
2021/05/07 05:56:04;;;;;;;1.30;1.00;;;;;;;9.52;88.76;94922.31;5032285;28;20244;-83
2021/05/07 05:58:31;;;;;;;3.37;1.03;;;;;;;9.51;89.47;94933.59;5030919;28;20216;-82
2021/05/07 06:00:58;;;;;;;1.03;0.70;;;;;;;9.39;86.26;94935.09;5031671;28;20684;-80
2021/05/07 06:03:23;;;;;;;1.07;0.80;;;;;;;9.30;87.69;94934.41;5031943;28;20276;-82
2021/05/07 06:06:03;;;;;;;0.93;0.70;;;;;;;9.35;88.35;94934.66;5030609;28;20831;-82
2021/05/07 06:08:32;;;;;;;2.40;0.73;;;;;;;9.39;88.13;94934.28;5022616;28;20208;-82
2021/05/07 06:10:58;;;;;;;0.60;0.60;;;;;;;9.44;85.61;94937.06;5031566;28;21003;-83
2021/05/07 06:13:24;;;;;;;0.70;0.70;;;;;;;9.44;86.10;94939.63;5032194;28;20204;-84
2021/05/07 06:15:50;;;;;;;1.23;0.90;;;;;;;9.45;86.54;94928.38;5031971;28;20825;-84
2021/05/07 06:18:16;;;;;;;1.17;0.80;;;;;;;9.45;88.55;94903.47;5032968;28;20724;-84
2021/05/07 06:20:44;;;;;;;0.80;0.80;;;;;;;9.63;87.01;94913.31;5036122;28;20202;-80
2021/05/07 06:23:10;;;;;;;2.53;1.00;;;;;;;9.79;86.65;94912.25;5035740;28;20224;-81
2021/05/07 06:25:38;;;;;;;1.03;0.97;;;;;;;9.94;87.15;94915.50;5036630;28;20595;-81
2021/05/07 06:28:09;;;;;;;1.80;1.10;;;;;;;9.86;87.65;94921.56;5035760;28;20198;-83
2021/05/07 06:30:35;;;;;;;2.17;1.20;;;;;;;9.83;88.11;94924.53;5035723;28;20746;-84
2021/05/07 06:33:00;;;;;;;1.00;0.83;;;;;;;9.83;87.49;94924.53;5034157;28;20223;-82
2021/05/07 06:35:28;;;;;;;0.80;0.70;;;;;;;9.94;87.28;94913.72;5034706;28;20222;-81
2021/05/07 06:37:56;;;;;;;0.90;0.90;;;;;;;9.87;86.49;94925.75;5034544;28;20256;-81
2021/05/07 06:40:24;;;;;;;1.33;0.73;;;;;;;9.74;87.27;94920.53;5035004;28;20610;-83
2021/05/07 06:42:50;;;;;;;1.13;0.80;;;;;;;9.87;86.67;94928.31;5029149;28;20226;-82
2021/05/07 06:45:17;;;;;;;1.43;0.80;;;;;;;9.93;86.83;94922.44;5022940;28;20217;-81
2021/05/07 06:47:43;;;;;;;2.10;0.70;;;;;;;9.98;86.03;94920.09;5034455;28;20209;-82
2021/05/07 06:50:11;;;;;;;1.37;0.70;;;;;;;10.13;86.44;94914.81;5034249;28;20197;-82
2021/05/07 06:52:37;;;;;;;1.10;1.00;;;;;;;10.10;84.73;94914.41;5035191;28;20198;-82
2021/05/07 06:55:05;;;;;;;0.90;0.70;;;;;;;10.04;84.03;94910.81;5034279;28;20229;-82
2021/05/07 06:57:31;;;;;;;1.00;0.70;;;;;;;10.28;84.39;94909.56;5034536;28;20264;-80
2021/05/07 06:59:57;;;;;;;1.07;0.80;;;;;;;10.43;85.09;94914.59;5034385;28;20681;-82
2021/05/07 07:02:24;;;;;;;1.87;0.67;;;;;;;10.54;84.18;94911.47;5033803;28;20194;-81
2021/05/07 07:04:50;;;;;;;0.80;0.80;;;;;;;10.65;83.53;94908.34;5034350;28;20225;-81
2021/05/07 07:07:16;;;;;;;0.90;0.90;;;;;;;10.82;82.79;94901.84;5034661;28;20202;-82
2021/05/07 07:09:43;;;;;;;1.00;0.80;;;;;;;10.83;84.02;94908.59;5034041;28;20191;-80
2021/05/07 07:12:11;;;;;;;0.93;0.73;;;;;;;10.87;83.32;94916.72;5035139;28;20210;-83
2021/05/07 07:14:40;;;;;;;1.00;0.60;;;;;;;10.84;81.66;94917.09;5034633;28;20210;-81
2021/05/07 07:17:09;;;;;;;0.50;0.50;;;;;;;10.69;81.38;94912.13;5034791;28;20206;-81
2021/05/07 07:19:39;;;;;;;1.50;0.70;;;;;;;10.67;82.48;94916.66;5033551;28;20200;-81
2021/05/07 07:22:10;;;;;;;0.50;0.50;;;;;;;10.56;82.78;94909.50;5034405;28;20195;-84
2021/05/07 07:24:38;;;;;;;1.17;0.63;;;;;;;10.57;84.21;94908.53;5033969;28;20221;-82
2021/05/07 07:27:05;;;;;;;0.60;0.60;;;;;;;10.66;83.46;94903.00;5014876;28;20195;-84
2021/05/07 07:29:31;;;;;;;0.50;0.50;;;;;;;10.72;84.16;94909.16;5031696;28;20217;-84
2021/05/07 07:32:03;;;;;;;0.60;0.60;;;;;;;10.75;83.15;94903.63;5033642;28;20205;-83
2021/05/07 07:34:32;;;;;;;0.60;0.60;;;;;;;10.71;83.34;94894.69;5033875;28;20709;-84
2021/05/07 07:37:01;;;;;;;0.57;0.57;;;;;;;10.72;83.79;94898.88;5034521;28;20210;-82
2021/05/07 07:39:29;;;;;;;1.27;0.80;;;;;;;10.69;83.18;94896.66;5033501;28;20201;-84
2021/05/07 07:41:55;;;;;;;0.93;0.80;;;;;;;10.58;83.03;94900.59;5033326;28;20693;-84
2021/05/07 07:44:21;;;;;;;0.83;0.70;;;;;;;10.60;83.58;94900.41;5030696;28;20257;-82
2021/05/07 07:46:50;;;;;;;1.00;0.90;;;;;;;10.58;85.07;94910.13;5033671;28;20685;-82
2021/05/07 07:49:19;;;;;;;1.10;0.90;;;;;;;10.47;86.03;94890.84;5033468;28;20206;-82
2021/05/07 07:51:45;;;;;;;1.07;0.97;;;;;;;10.24;89.12;94901.44;5034150;28;20213;-82
2021/05/07 07:54:14;;;;;;;1.40;0.83;;;;;;;10.31;89.40;94919.50;5034674;28;20578;-83
2021/05/07 07:56:43;;;;;;;1.10;1.10;;;;;;;10.39;90.22;94903.91;5034854;28;20209;-84
2021/05/07 08:00:05;;;;;;;1.10;1.00;;;;;;;10.15;87.48;94946.28;5034531;28;20198;-82
2021/05/07 08:05:38;;;;;;;1.27;1.00;;;;;;;9.72;89.69;94960.25;5032088;28;20222;-82
2021/05/07 08:08:04;;;;;;;0.97;0.97;;;;;;;9.61;90.54;94982.13;5034631;28;20194;-83
2021/05/07 08:10:37;;;;;;;1.33;1.00;;;;;;;9.43;88.53;94986.91;5035701;28;20241;-84
2021/05/07 08:16:07;;;;;;;0.97;0.90;;;;;;;9.37;89.75;95003.03;5022036;22;20614;-82
2021/05/07 08:18:33;;;;;;;0.70;0.70;;;;;;;9.28;89.08;95003.13;5015361;28;20203;-83
2021/05/07 08:21:04;;;;;;;0.60;0.60;;;;;;;9.24;89.03;95008.81;5015059;28;20571;-83
2021/05/07 08:23:56;;;;;;;0.70;0.70;;;;;;;9.08;88.73;95016.75;5015315;28;20281;-83
2021/05/07 08:26:27;;;;;;;0.77;0.77;;;;;;;9.03;87.79;95030.16;4995723;28;20200;-83
2021/05/07 08:28:55;;;;;;;0.60;0.60;;;;;;;8.85;88.80;95040.78;4994379;28;20203;-83
2021/05/07 08:31:28;;;;;;;0.60;0.60;;;;;;;8.85;89.35;95042.56;4994605;28;20199;-85
2021/05/07 08:34:08;;;;;;;0.57;0.57;;;;;;;8.84;89.31;95052.03;5016960;23;20203;-84
2021/05/07 08:36:51;;;;;;;0.80;0.80;;;;;;;8.90;89.32;95063.34;4974557;28;20212;-82
2021/05/07 08:39:24;;;;;;;1.30;0.70;;;;;;;8.96;87.98;95070.34;4974446;28;20236;-83
2021/05/07 08:41:56;;;;;;;1.13;0.60;;;;;;;8.90;86.41;95071.03;4973765;28;20207;-82
2021/05/07 08:44:42;;;;;;;0.50;0.50;;;;;;;8.84;86.59;95076.91;4987713;23;20234;-83
2021/05/07 08:47:11;;;;;;;0.70;0.70;;;;;;;8.74;88.66;95076.38;4976593;28;20222;-85
2021/05/07 08:49:37;;;;;;;0.80;0.80;;;;;;;8.81;87.13;95083.19;4975267;28;20204;-85
2021/05/07 08:52:04;;;;;;;0.60;0.60;;;;;;;8.92;86.66;95081.94;4993167;28;20258;-85
2021/05/07 08:54:32;;;;;;;0.63;0.63;;;;;;;8.85;85.72;95086.97;4993700;28;20223;-85
2021/05/07 08:57:02;;;;;;;0.53;0.53;;;;;;;8.89;86.20;95090.00;4974667;28;20200;-85
2021/05/07 08:59:32;;;;;;;0.57;0.57;;;;;;;9.00;86.53;95090.34;4987927;28;20222;-84
2021/05/07 09:01:58;;;;;;;0.97;0.80;;;;;;;9.10;85.30;95099.53;4993723;28;20227;-84
2021/05/07 09:04:26;;;;;;;0.70;0.70;;;;;;;9.21;85.75;95091.38;4993812;28;20227;-85
2021/05/07 09:06:53;;;;;;;0.87;0.50;;;;;;;9.25;86.18;95095.97;4994045;28;20290;-85
2021/05/07 09:09:22;;;;;;;0.73;0.60;;;;;;;9.39;85.53;95102.06;4993744;28;20204;-84
2021/05/07 09:11:50;;;;;;;0.60;0.60;;;;;;;9.56;84.72;95105.22;4992215;28;20235;-84
2021/05/07 09:14:17;;;;;;;0.57;0.57;;;;;;;9.71;82.29;95113.66;4993507;28;20725;-85
2021/05/07 09:16:54;;;;;;;0.60;0.60;;;;;;;9.79;84.09;95123.84;4993754;28;20675;-84
2021/05/07 09:19:21;;;;;;;0.60;0.60;;;;;;;9.65;85.96;95117.75;4993129;28;20264;-85
2021/05/07 09:21:48;;;;;;;0.60;0.60;;;;;;;9.70;84.33;95119.78;4993382;28;20649;-85
2021/05/07 09:24:14;;;;;;;0.60;0.60;;;;;;;9.66;84.03;95129.63;4993865;28;20227;-84
2021/05/07 09:26:50;;;;;;;0.50;0.50;;;;;;;9.69;82.46;95144.69;4993566;28;20580;-85
2021/05/07 09:29:22;;;;;;;0.60;0.60;;;;;;;9.67;80.41;95156.13;4997447;28;20563;-85
2021/05/07 09:31:50;;;;;;;0.87;0.70;;;;;;;9.71;80.46;95152.22;4993097;28;20207;-85
2021/05/07 09:34:17;;;;;;;0.63;0.63;;;;;;;9.80;80.63;95150.34;4993482;28;20230;-85
2021/05/07 09:36:43;;;;;;;0.90;0.70;;;;;;;9.79;79.56;95151.34;4974636;28;20199;-85
2021/05/07 09:39:17;;;;;;;0.70;0.70;;;;;;;9.75;83.21;95150.09;4978153;28;20196;-84
2021/05/07 09:41:45;;;;;;;0.70;0.70;;;;;;;10.04;82.41;95162.84;4992953;28;20732;-85
2021/05/07 09:44:13;;;;;;;0.63;0.63;;;;;;;10.05;81.10;95164.44;4981103;28;20675;-85
2021/05/07 09:46:40;;;;;;;0.60;0.60;;;;;;;10.13;81.74;95169.47;4993789;28;20203;-85
2021/05/07 09:49:06;;;;;;;0.70;0.70;;;;;;;10.15;83.39;95170.09;4992847;28;20239;-85
2021/05/07 09:51:39;;;;;;;0.67;0.67;;;;;;;10.22;79.10;95183.03;4992894;28;20566;-85
2021/05/07 09:54:11;;;;;;;0.67;0.60;;;;;;;10.23;78.46;95187.19;4992747;28;20243;-85
2021/05/07 09:56:44;;;;;;;0.80;0.80;;;;;;;10.20;78.28;95203.03;4993692;28;20640;-85
2021/05/07 09:59:14;;;;;;;0.80;0.80;;;;;;;10.11;79.05;95209.22;4993387;28;20199;-85
2021/05/07 10:01:44;;;;;;;0.60;0.60;;;;;;;10.11;79.02;95222.88;4992112;28;20250;-85
2021/05/07 10:04:14;;;;;;;0.90;0.90;;;;;;;9.91;78.00;95224.44;4993821;28;20610;-85
2021/05/07 10:06:40;;;;;;;0.73;0.73;;;;;;;9.85;77.89;95225.94;4992817;28;20694;-85
2021/05/07 10:09:07;;;;;;;0.70;0.70;;;;;;;9.83;78.19;95224.53;4994194;28;20700;-85
2021/05/07 10:11:37;;;;;;;0.80;0.80;;;;;;;9.93;79.20;95232.78;4992767;28;20219;-85
2021/05/07 10:14:08;;;;;;;0.90;0.90;;;;;;;9.89;79.33;95239.25;4993278;28;20422;-85
2021/05/07 10:16:34;;;;;;;0.80;0.80;;;;;;;9.93;80.26;95237.91;4992218;28;20204;-85
2021/05/07 10:19:03;;;;;;;0.80;0.80;;;;;;;9.89;83.55;95227.19;4992774;28;20203;-84
2021/05/07 10:21:35;;;;;;;0.80;0.80;;;;;;;9.78;79.15;95235.38;4992915;28;20250;-84
2021/05/07 10:24:02;;;;;;;0.70;0.70;;;;;;;9.74;81.41;95239.28;4995265;28;20227;-85
2021/05/07 10:26:34;;;;;;;0.70;0.70;;;;;;;9.76;79.02;95242.47;4994151;28;20207;-85
2021/05/07 10:29:00;;;;;;;5.33;3.70;;;;;;;9.83;80.86;95245.91;4992955;28;20192;-85
2021/05/07 10:31:26;;;;;;;43.57;26.03;;;;;;;10.17;88.04;95257.38;4998873;28;20199;-86
2021/05/07 10:33:57;;;;;;;8.27;5.33;;;;;;;10.43;79.87;95254.28;4997316;28;20207;-85
2021/05/07 10:36:34;;;;;;;27.27;16.93;;;;;;;10.72;84.15;95256.75;4997652;28;20207;-86
2021/05/07 10:39:00;;;;;;;9.47;5.80;;;;;;;10.82;79.26;95254.63;4998404;28;20206;-85
2021/05/07 10:41:34;;;;;;;12.00;8.30;;;;;;;11.00;80.08;95260.13;4998719;28;20200;-85
2021/05/07 10:44:03;;;;;;;2.27;1.70;;;;;;;10.87;74.26;95269.53;4998420;28;20242;-85
2021/05/07 10:46:29;;;;;;;1.10;1.00;;;;;;;10.65;72.33;95266.19;4997462;28;20222;-84
2021/05/07 10:48:57;;;;;;;4.07;2.63;;;;;;;10.60;76.41;95258.19;4999650;28;20266;-85
2021/05/07 10:51:26;;;;;;;2.43;1.90;;;;;;;10.67;75.43;95261.66;5000536;28;20206;-84
2021/05/07 10:53:52;;;;;;;7.87;4.20;;;;;;;10.96;79.09;95263.28;5000106;28;20272;-83
2021/05/07 10:56:21;;;;;;;4.00;2.83;;;;;;;11.18;75.81;95271.75;4998632;28;20203;-85
2021/05/07 10:58:47;;;;;;;4.23;2.60;;;;;;;11.39;72.93;95269.13;4998129;28;20207;-85
2021/05/07 11:01:23;;;;;;;1.30;1.20;;;;;;;11.54;69.74;95274.19;4999396;28;20192;-84
2021/05/07 11:04:05;;;;;;;1.40;1.30;;;;;;;11.50;69.24;95280.69;4998357;28;20310;-84
2021/05/07 11:06:34;;;;;;;1.20;1.10;;;;;;;11.29;67.75;95281.56;5000850;28;20207;-85
2021/05/07 11:09:27;;;;;;;1.77;1.30;;;;;;;11.01;66.63;95289.25;5000477;28;20226;-84
2021/05/07 11:11:55;;;;;;;1.40;1.30;;;;;;;10.89;68.77;95280.47;4998151;28;20219;-85
2021/05/07 11:14:25;;;;;;;2.17;1.80;;;;;;;10.75;69.91;95295.00;5002491;28;20219;-84
2021/05/07 11:17:31;;;;;;;2.23;1.83;;;;;;;10.87;71.21;95303.81;5000356;28;20195;-85
2021/05/07 11:20:52;;;;;;;1.70;1.60;;;;;;;10.82;68.59;95295.03;4955843;28;20631;-84
2021/05/07 11:23:18;;;;;;;1.80;1.70;;;;;;;10.74;71.21;95311.44;4994508;28;20274;-83
2021/05/07 11:25:44;;;;;;;1.90;1.80;;;;;;;10.66;69.12;95321.84;4992196;28;20227;-86
2021/05/07 11:28:14;;;;;;;2.07;1.93;;;;;;;10.54;67.95;95318.16;5001482;28;20202;-86
2021/05/07 11:30:50;;;;;;;2.20;2.10;;;;;;;10.54;67.51;95318.16;4998703;28;20200;-85
2021/05/07 11:33:17;;;;;;;2.40;2.20;;;;;;;10.49;68.05;95330.78;4994488;28;20262;-84
2021/05/07 11:35:43;;;;;;;2.13;2.03;;;;;;;10.34;67.67;95333.41;4993358;28;20216;-84
2021/05/07 11:38:09;;;;;;;2.40;2.20;;;;;;;10.35;67.12;95330.66;4993997;28;20211;-84
2021/05/07 11:40:37;;;;;;;3.50;2.37;;;;;;;10.28;67.09;95334.09;4994461;28;20280;-84
2021/05/07 11:43:08;;;;;;;2.73;2.53;;;;;;;10.20;68.34;95335.00;4987421;28;20224;-84
2021/05/07 11:45:34;;;;;;;2.77;2.57;;;;;;;10.20;67.86;95341.94;4975182;28;20244;-84
2021/05/07 11:48:05;;;;;;;2.60;2.40;;;;;;;10.18;68.35;95341.28;4989379;28;20196;-86